Terminal Aerodrome Forecast
Issued by NWS Shreveport, LA

Home | Current Version | Previous Version | Text Only | Print | Product List | Glossary On
Versions: 1 2 3 4 5 6 7 8 9 10 11 12 13
000
FTUS44 KSHV 211100 RRA
TAFELD
TAF
KELD 211141Z 2112/2212 00000KT P6SM SKC
      TEMPO 2112/2113 4SM BR
     FM211500 20007KT P6SM SCT040
     FM220200 16003KT P6SM SKC=

USA.gov is the U.S. government's official web portal to all federal, state and local government web resources and services.